sensor_id;sensor_type;location;lat;lon;timestamp;temperature;humidity
981;DHT22;479;53.514;9.994;2024-03-23T00:54:42;7.80;99.90
981;DHT22;479;53.514;9.994;2024-03-23T00:57:08;7.90;99.90
981;DHT22;479;53.514;9.994;2024-03-23T00:59:35;7.80;99.90
981;DHT22;479;53.514;9.994;2024-03-23T01:02:02;7.80;99.90
981;DHT22;479;53.514;9.994;2024-03-23T01:04:35;7.80;99.90
981;DHT22;479;53.514;9.994;2024-03-23T01:07:03;7.80;99.90
981;DHT22;479;53.514;9.994;2024-03-23T01:09:32;7.80;99.90
981;DHT22;479;53.514;9.994;2024-03-23T01:11:59;7.80;99.90
981;DHT22;479;53.514;9.994;2024-03-23T01:14:27;7.80;99.90
981;DHT22;479;53.514;9.994;2024-03-23T01:16:53;7.70;99.90
981;DHT22;479;53.514;9.994;2024-03-23T01:19:20;7.90;99.90
981;DHT22;479;53.514;9.994;2024-03-23T01:21:46;7.80;99.90
981;DHT22;479;53.514;9.994;2024-03-23T01:24:16;7.80;99.90
981;DHT22;479;53.514;9.994;2024-03-23T01:26:45;7.70;99.90
981;DHT22;479;53.514;9.994;2024-03-23T01:29:12;7.70;99.90
981;DHT22;479;53.514;9.994;2024-03-23T01:31:38;7.70;99.90
981;DHT22;479;53.514;9.994;2024-03-23T01:34:09;7.70;99.90
981;DHT22;479;53.514;9.994;2024-03-23T01:36:35;7.70;99.90
981;DHT22;479;53.514;9.994;2024-03-23T01:39:02;7.70;99.90
981;DHT22;479;53.514;9.994;2024-03-23T01:41:29;7.70;99.90
981;DHT22;479;53.514;9.994;2024-03-23T01:43:56;7.60;99.90
981;DHT22;479;53.514;9.994;2024-03-23T01:46:22;7.60;99.90
981;DHT22;479;53.514;9.994;2024-03-23T01:48:50;7.50;99.90
981;DHT22;479;53.514;9.994;2024-03-23T01:51:16;7.50;99.90
981;DHT22;479;53.514;9.994;2024-03-23T01:53:44;7.50;99.90
981;DHT22;479;53.514;9.994;2024-03-23T01:56:13;7.60;99.90
981;DHT22;479;53.514;9.994;2024-03-23T01:58:42;7.50;99.90
981;DHT22;479;53.514;9.994;2024-03-23T02:01:09;7.50;99.90
981;DHT22;479;53.514;9.994;2024-03-23T02:03:36;7.50;99.90
981;DHT22;479;53.514;9.994;2024-03-23T02:06:02;7.50;99.90
981;DHT22;479;53.514;9.994;2024-03-23T02:08:31;7.50;99.90
981;DHT22;479;53.514;9.994;2024-03-23T02:10:56;7.50;99.90
981;DHT22;479;53.514;9.994;2024-03-23T02:13:24;7.40;99.90
981;DHT22;479;53.514;9.994;2024-03-23T02:15:51;7.40;99.90
981;DHT22;479;53.514;9.994;2024-03-23T02:18:18;7.40;99.90
981;DHT22;479;53.514;9.994;2024-03-23T02:20:44;7.40;99.90
981;DHT22;479;53.514;9.994;2024-03-23T02:23:16;7.40;99.90
981;DHT22;479;53.514;9.994;2024-03-23T02:25:43;7.40;99.90
981;DHT22;479;53.514;9.994;2024-03-23T02:28:10;7.40;99.90
981;DHT22;479;53.514;9.994;2024-03-23T02:30:36;7.40;99.90
981;DHT22;479;53.514;9.994;2024-03-23T02:33:04;7.40;99.90
981;DHT22;479;53.514;9.994;2024-03-23T02:35:30;7.40;99.90
981;DHT22;479;53.514;9.994;2024-03-23T02:37:57;7.40;99.90
981;DHT22;479;53.514;9.994;2024-03-23T02:40:24;7.30;99.90
981;DHT22;479;53.514;9.994;2024-03-23T02:42:52;7.30;99.90
981;DHT22;479;53.514;9.994;2024-03-23T02:45:17;7.20;99.90
981;DHT22;479;53.514;9.994;2024-03-23T02:47:44;7.20;99.90
981;DHT22;479;53.514;9.994;2024-03-23T02:50:10;7.20;99.90
981;DHT22;479;53.514;9.994;2024-03-23T02:52:37;7.20;99.90
981;DHT22;479;53.514;9.994;2024-03-23T02:55:04;7.20;99.90
981;DHT22;479;53.514;9.994;2024-03-23T02:57:32;7.20;99.90
981;DHT22;479;53.514;9.994;2024-03-23T02:59:58;7.20;99.90
981;DHT22;479;53.514;9.994;2024-03-23T03:02:25;7.20;99.90
981;DHT22;479;53.514;9.994;2024-03-23T03:04:51;7.20;99.90
981;DHT22;479;53.514;9.994;2024-03-23T03:07:18;7.20;99.90
981;DHT22;479;53.514;9.994;2024-03-23T03:09:44;7.20;99.90
981;DHT22;479;53.514;9.994;2024-03-23T03:12:11;7.20;99.90
981;DHT22;479;53.514;9.994;2024-03-23T03:14:38;7.20;99.90
981;DHT22;479;53.514;9.994;2024-03-23T03:17:05;7.20;99.90
981;DHT22;479;53.514;9.994;2024-03-23T03:19:31;7.20;99.90
981;DHT22;479;53.514;9.994;2024-03-23T03:21:58;7.20;99.90
981;DHT22;479;53.514;9.994;2024-03-23T03:24:24;7.10;99.90
981;DHT22;479;53.514;9.994;2024-03-23T03:26:51;7.20;99.90
981;DHT22;479;53.514;9.994;2024-03-23T03:29:18;7.20;99.90
981;DHT22;479;53.514;9.994;2024-03-23T03:31:46;7.20;99.90
981;DHT22;479;53.514;9.994;2024-03-23T03:34:12;7.20;99.90
981;DHT22;479;53.514;9.994;2024-03-23T03:36:39;7.10;99.90
981;DHT22;479;53.514;9.994;2024-03-23T03:39:05;7.10;99.90
981;DHT22;479;53.514;9.994;2024-03-23T03:41:32;7.10;99.90
981;DHT22;479;53.514;9.994;2024-03-23T03:43:58;7.10;99.90
981;DHT22;479;53.514;9.994;2024-03-23T03:46:27;7.10;99.90
981;DHT22;479;53.514;9.994;2024-03-23T03:48:55;7.10;99.90
981;DHT22;479;53.514;9.994;2024-03-23T03:51:22;7.10;99.90
981;DHT22;479;53.514;9.994;2024-03-23T03:53:48;7.00;99.90
981;DHT22;479;53.514;9.994;2024-03-23T03:56:15;7.00;99.90
981;DHT22;479;53.514;9.994;2024-03-23T03:58:41;7.00;99.90
981;DHT22;479;53.514;9.994;2024-03-23T04:01:08;7.00;99.90
981;DHT22;479;53.514;9.994;2024-03-23T04:03:34;6.90;99.90
981;DHT22;479;53.514;9.994;2024-03-23T04:06:02;6.90;99.90
981;DHT22;479;53.514;9.994;2024-03-23T04:08:28;7.00;99.90
981;DHT22;479;53.514;9.994;2024-03-23T04:10:55;7.00;99.90
981;DHT22;479;53.514;9.994;2024-03-23T04:13:21;7.00;99.90
981;DHT22;479;53.514;9.994;2024-03-23T04:15:48;7.00;99.90
981;DHT22;479;53.514;9.994;2024-03-23T04:18:14;7.00;99.90
981;DHT22;479;53.514;9.994;2024-03-23T04:20:41;7.00;99.90
981;DHT22;479;53.514;9.994;2024-03-23T04:23:09;6.90;99.90
981;DHT22;479;53.514;9.994;2024-03-23T04:25:35;7.00;99.90
981;DHT22;479;53.514;9.994;2024-03-23T04:28:02;6.90;99.90
981;DHT22;479;53.514;9.994;2024-03-23T04:30:28;6.90;99.90
981;DHT22;479;53.514;9.994;2024-03-23T04:32:55;6.90;99.90
981;DHT22;479;53.514;9.994;2024-03-23T04:35:22;7.00;99.90
981;DHT22;479;53.514;9.994;2024-03-23T04:37:51;7.00;99.90
981;DHT22;479;53.514;9.994;2024-03-23T04:40:19;6.90;99.90
981;DHT22;479;53.514;9.994;2024-03-23T04:42:47;6.90;99.90
981;DHT22;479;53.514;9.994;2024-03-23T04:45:14;6.90;99.90
981;DHT22;479;53.514;9.994;2024-03-23T04:47:41;6.90;99.90
981;DHT22;479;53.514;9.994;2024-03-23T04:50:09;6.80;99.90
981;DHT22;479;53.514;9.994;2024-03-23T04:52:37;6.90;99.90
981;DHT22;479;53.514;9.994;2024-03-23T04:55:04;6.80;99.90
981;DHT22;479;53.514;9.994;2024-03-23T04:57:32;6.80;99.90
981;DHT22;479;53.514;9.994;2024-03-23T04:59:59;6.80;99.90
981;DHT22;479;53.514;9.994;2024-03-23T05:02:25;6.90;99.90
981;DHT22;479;53.514;9.994;2024-03-23T05:04:52;6.90;99.90
981;DHT22;479;53.514;9.994;2024-03-23T05:07:18;6.90;99.90
981;DHT22;479;53.514;9.994;2024-03-23T05:09:45;6.80;99.90
981;DHT22;479;53.514;9.994;2024-03-23T05:12:11;6.90;99.90
981;DHT22;479;53.514;9.994;2024-03-23T05:14:39;6.90;99.90
981;DHT22;479;53.514;9.994;2024-03-23T05:17:05;6.90;99.90
981;DHT22;479;53.514;9.994;2024-03-23T05:19:32;6.90;99.90
981;DHT22;479;53.514;9.994;2024-03-23T05:21:58;6.90;99.90
981;DHT22;479;53.514;9.994;2024-03-23T05:24:25;6.80;99.90
981;DHT22;479;53.514;9.994;2024-03-23T05:26:51;6.80;99.90
981;DHT22;479;53.514;9.994;2024-03-23T05:29:18;6.90;99.90
981;DHT22;479;53.514;9.994;2024-03-23T05:31:49;6.80;99.90
981;DHT22;479;53.514;9.994;2024-03-23T05:34:17;6.80;99.90
981;DHT22;479;53.514;9.994;2024-03-23T05:36:43;6.80;99.90
981;DHT22;479;53.514;9.994;2024-03-23T05:39:10;6.80;99.90
981;DHT22;479;53.514;9.994;2024-03-23T05:41:36;6.80;99.90
981;DHT22;479;53.514;9.994;2024-03-23T05:44:03;6.80;99.90
981;DHT22;479;53.514;9.994;2024-03-23T05:46:29;6.80;99.90
981;DHT22;479;53.514;9.994;2024-03-23T05:49:01;6.90;99.90
981;DHT22;479;53.514;9.994;2024-03-23T05:51:27;6.90;99.90
981;DHT22;479;53.514;9.994;2024-03-23T05:53:54;6.90;99.90
981;DHT22;479;53.514;9.994;2024-03-23T05:56:20;7.00;99.90
981;DHT22;479;53.514;9.994;2024-03-23T05:58:47;7.00;99.90
981;DHT22;479;53.514;9.994;2024-03-23T06:01:14;7.00;99.90
981;DHT22;479;53.514;9.994;2024-03-23T06:03:41;7.10;99.90
981;DHT22;479;53.514;9.994;2024-03-23T06:06:10;7.10;99.90
981;DHT22;479;53.514;9.994;2024-03-23T06:08:38;7.00;99.90
981;DHT22;479;53.514;9.994;2024-03-23T06:11:04;7.00;99.90
981;DHT22;479;53.514;9.994;2024-03-23T06:13:31;7.10;99.90
981;DHT22;479;53.514;9.994;2024-03-23T06:15:57;7.10;99.90
981;DHT22;479;53.514;9.994;2024-03-23T06:18:24;7.10;99.90
981;DHT22;479;53.514;9.994;2024-03-23T06:20:50;7.20;99.90
981;DHT22;479;53.514;9.994;2024-03-23T06:23:18;7.30;99.90
981;DHT22;479;53.514;9.994;2024-03-23T06:25:46;7.30;99.90
981;DHT22;479;53.514;9.994;2024-03-23T06:28:13;7.40;99.90
981;DHT22;479;53.514;9.994;2024-03-23T06:30:40;7.40;99.90
981;DHT22;479;53.514;9.994;2024-03-23T06:33:05;7.50;99.90
981;DHT22;479;53.514;9.994;2024-03-23T06:35:32;7.60;99.90
981;DHT22;479;53.514;9.994;2024-03-23T06:37:58;7.70;99.90
981;DHT22;479;53.514;9.994;2024-03-23T06:40:26;7.80;99.90
981;DHT22;479;53.514;9.994;2024-03-23T06:42:52;7.90;99.90
981;DHT22;479;53.514;9.994;2024-03-23T06:45:19;8.00;99.90
981;DHT22;479;53.514;9.994;2024-03-23T06:47:48;8.10;99.90
981;DHT22;479;53.514;9.994;2024-03-23T06:50:16;8.10;99.90
981;DHT22;479;53.514;9.994;2024-03-23T06:52:42;8.20;99.90
981;DHT22;479;53.514;9.994;2024-03-23T06:55:08;8.20;99.90
981;DHT22;479;53.514;9.994;2024-03-23T06:57:36;8.30;99.90
981;DHT22;479;53.514;9.994;2024-03-23T07:00:03;8.60;99.90
981;DHT22;479;53.514;9.994;2024-03-23T07:02:30;8.80;99.90
981;DHT22;479;53.514;9.994;2024-03-23T07:04:57;8.70;99.90
981;DHT22;479;53.514;9.994;2024-03-23T07:07:22;8.60;99.90
981;DHT22;479;53.514;9.994;2024-03-23T07:09:49;8.60;99.90
981;DHT22;479;53.514;9.994;2024-03-23T07:12:15;8.70;99.90
981;DHT22;479;53.514;9.994;2024-03-23T07:14:43;8.60;99.90
981;DHT22;479;53.514;9.994;2024-03-23T07:17:09;8.80;99.90
981;DHT22;479;53.514;9.994;2024-03-23T07:19:36;9.00;99.90
981;DHT22;479;53.514;9.994;2024-03-23T07:22:02;9.30;99.90
981;DHT22;479;53.514;9.994;2024-03-23T07:24:30;10.10;99.90
981;DHT22;479;53.514;9.994;2024-03-23T07:26:56;10.80;99.90
981;DHT22;479;53.514;9.994;2024-03-23T07:29:23;11.00;99.90
981;DHT22;479;53.514;9.994;2024-03-23T07:31:51;11.30;99.90
981;DHT22;479;53.514;9.994;2024-03-23T07:34:18;11.50;99.90
981;DHT22;479;53.514;9.994;2024-03-23T07:36:44;11.10;99.90
981;DHT22;479;53.514;9.994;2024-03-23T07:39:10;11.60;99.90
981;DHT22;479;53.514;9.994;2024-03-23T07:41:37;12.30;99.90
981;DHT22;479;53.514;9.994;2024-03-23T07:44:04;11.80;99.90
981;DHT22;479;53.514;9.994;2024-03-23T07:46:30;12.50;99.90
981;DHT22;479;53.514;9.994;2024-03-23T07:48:58;13.40;99.90
981;DHT22;479;53.514;9.994;2024-03-23T07:51:24;14.20;99.90
981;DHT22;479;53.514;9.994;2024-03-23T07:53:51;14.30;99.90
981;DHT22;479;53.514;9.994;2024-03-23T07:56:18;14.40;99.90
981;DHT22;479;53.514;9.994;2024-03-23T07:58:45;15.20;99.90
981;DHT22;479;53.514;9.994;2024-03-23T08:01:15;16.50;99.90
981;DHT22;479;53.514;9.994;2024-03-23T08:03:42;17.50;99.90
981;DHT22;479;53.514;9.994;2024-03-23T08:06:13;17.50;99.90
981;DHT22;479;53.514;9.994;2024-03-23T08:08:39;18.00;99.90
981;DHT22;479;53.514;9.994;2024-03-23T08:11:07;18.80;99.90
981;DHT22;479;53.514;9.994;2024-03-23T08:13:34;19.60;99.90
981;DHT22;479;53.514;9.994;2024-03-23T08:16:02;20.00;99.90
981;DHT22;479;53.514;9.994;2024-03-23T08:18:29;20.40;99.90
981;DHT22;479;53.514;9.994;2024-03-23T08:20:57;20.60;99.90
981;DHT22;479;53.514;9.994;2024-03-23T08:23:25;21.00;99.90
981;DHT22;479;53.514;9.994;2024-03-23T08:25:52;21.40;99.90
981;DHT22;479;53.514;9.994;2024-03-23T08:28:22;21.60;99.90
981;DHT22;479;53.514;9.994;2024-03-23T08:30:49;21.40;99.90
981;DHT22;479;53.514;9.994;2024-03-23T08:33:15;19.10;99.90
981;DHT22;479;53.514;9.994;2024-03-23T08:35:42;15.40;99.90
981;DHT22;479;53.514;9.994;2024-03-23T08:38:08;13.00;99.90
981;DHT22;479;53.514;9.994;2024-03-23T08:40:36;12.10;99.90
981;DHT22;479;53.514;9.994;2024-03-23T08:43:03;13.50;99.90
981;DHT22;479;53.514;9.994;2024-03-23T08:45:30;16.40;99.90
981;DHT22;479;53.514;9.994;2024-03-23T08:47:55;16.50;99.90
981;DHT22;479;53.514;9.994;2024-03-23T08:50:22;16.40;99.90
981;DHT22;479;53.514;9.994;2024-03-23T08:52:50;16.20;99.90
981;DHT22;479;53.514;9.994;2024-03-23T08:55:17;16.40;99.90
981;DHT22;479;53.514;9.994;2024-03-23T08:57:45;17.80;99.90
981;DHT22;479;53.514;9.994;2024-03-23T09:00:13;19.90;99.90
981;DHT22;479;53.514;9.994;2024-03-23T09:02:40;21.80;99.90
981;DHT22;479;53.514;9.994;2024-03-23T09:05:07;23.10;99.90
981;DHT22;479;53.514;9.994;2024-03-23T09:07:33;22.90;99.90
981;DHT22;479;53.514;9.994;2024-03-23T09:10:00;22.60;99.90
981;DHT22;479;53.514;9.994;2024-03-23T09:12:26;22.80;99.90
981;DHT22;479;53.514;9.994;2024-03-23T09:14:54;20.90;99.90
981;DHT22;479;53.514;9.994;2024-03-23T09:17:20;19.90;99.90
981;DHT22;479;53.514;9.994;2024-03-23T09:19:47;18.90;99.90
981;DHT22;479;53.514;9.994;2024-03-23T09:22:13;18.50;99.90
981;DHT22;479;53.514;9.994;2024-03-23T09:24:40;16.10;99.90
981;DHT22;479;53.514;9.994;2024-03-23T09:27:06;17.40;99.90
981;DHT22;479;53.514;9.994;2024-03-23T09:29:33;19.60;99.90
981;DHT22;479;53.514;9.994;2024-03-23T09:32:00;17.80;98.10
981;DHT22;479;53.514;9.994;2024-03-23T09:34:27;15.50;91.70
981;DHT22;479;53.514;9.994;2024-03-23T09:36:53;14.40;92.90
981;DHT22;479;53.514;9.994;2024-03-23T09:39:20;13.80;96.70
981;DHT22;479;53.514;9.994;2024-03-23T09:41:46;14.00;98.80
981;DHT22;479;53.514;9.994;2024-03-23T09:44:13;14.60;97.00
981;DHT22;479;53.514;9.994;2024-03-23T09:46:39;12.90;96.00
981;DHT22;479;53.514;9.994;2024-03-23T09:49:08;13.00;98.70
981;DHT22;479;53.514;9.994;2024-03-23T09:51:36;13.70;99.90
981;DHT22;479;53.514;9.994;2024-03-23T09:54:03;14.20;98.90
981;DHT22;479;53.514;9.994;2024-03-23T09:56:29;14.10;99.50
981;DHT22;479;53.514;9.994;2024-03-23T09:59:05;13.50;97.90
981;DHT22;479;53.514;9.994;2024-03-23T10:01:32;12.90;99.60
981;DHT22;479;53.514;9.994;2024-03-23T10:03:59;12.80;99.90
981;DHT22;479;53.514;9.994;2024-03-23T10:06:27;13.60;99.90
981;DHT22;479;53.514;9.994;2024-03-23T10:08:54;14.70;99.90
981;DHT22;479;53.514;9.994;2024-03-23T10:11:21;14.40;96.60
981;DHT22;479;53.514;9.994;2024-03-23T10:13:48;15.90;95.10
981;DHT22;479;53.514;9.994;2024-03-23T10:16:21;15.20;85.50
981;DHT22;479;53.514;9.994;2024-03-23T10:18:49;15.50;91.10
981;DHT22;479;53.514;9.994;2024-03-23T10:21:16;16.70;89.80
981;DHT22;479;53.514;9.994;2024-03-23T10:23:44;17.70;85.30
981;DHT22;479;53.514;9.994;2024-03-23T10:26:18;18.50;79.20
981;DHT22;479;53.514;9.994;2024-03-23T10:28:54;18.60;73.40
981;DHT22;479;53.514;9.994;2024-03-23T10:31:22;18.90;71.30
981;DHT22;479;53.514;9.994;2024-03-23T10:33:49;17.40;61.40
981;DHT22;479;53.514;9.994;2024-03-23T10:36:15;17.20;70.60
981;DHT22;479;53.514;9.994;2024-03-23T10:38:44;17.50;65.80
981;DHT22;479;53.514;9.994;2024-03-23T10:41:10;17.40;64.20
981;DHT22;479;53.514;9.994;2024-03-23T10:43:38;16.40;63.40
981;DHT22;479;53.514;9.994;2024-03-23T10:46:05;14.80;63.40
981;DHT22;479;53.514;9.994;2024-03-23T10:48:33;14.70;69.50
981;DHT22;479;53.514;9.994;2024-03-23T10:50:59;15.50;68.90
981;DHT22;479;53.514;9.994;2024-03-23T10:53:27;15.00;66.70
981;DHT22;479;53.514;9.994;2024-03-23T10:55:55;13.90;75.90
981;DHT22;479;53.514;9.994;2024-03-23T10:58:26;13.20;90.50
981;DHT22;479;53.514;9.994;2024-03-23T11:00:53;12.40;94.30
981;DHT22;479;53.514;9.994;2024-03-23T11:03:30;11.50;99.90
981;DHT22;479;53.514;9.994;2024-03-23T11:05:56;11.10;99.90
981;DHT22;479;53.514;9.994;2024-03-23T11:08:34;11.00;99.90
981;DHT22;479;53.514;9.994;2024-03-23T11:11:16;11.70;99.90
981;DHT22;479;53.514;9.994;2024-03-23T11:13:44;12.90;99.90
981;DHT22;479;53.514;9.994;2024-03-23T11:16:14;13.50;99.90
981;DHT22;479;53.514;9.994;2024-03-23T11:18:41;13.80;99.90
981;DHT22;479;53.514;9.994;2024-03-23T11:21:07;13.50;97.00
981;DHT22;479;53.514;9.994;2024-03-23T11:23:34;13.20;99.90
981;DHT22;479;53.514;9.994;2024-03-23T11:26:00;13.80;99.90
981;DHT22;479;53.514;9.994;2024-03-23T11:28:30;14.10;97.20
981;DHT22;479;53.514;9.994;2024-03-23T11:30:56;14.40;94.80
981;DHT22;479;53.514;9.994;2024-03-23T11:33:23;14.10;89.70
981;DHT22;479;53.514;9.994;2024-03-23T11:35:49;14.20;91.10
981;DHT22;479;53.514;9.994;2024-03-23T11:38:17;14.00;89.50
981;DHT22;479;53.514;9.994;2024-03-23T11:40:45;13.80;92.40
981;DHT22;479;53.514;9.994;2024-03-23T11:43:13;13.30;94.10
981;DHT22;479;53.514;9.994;2024-03-23T11:45:43;13.00;91.40
981;DHT22;479;53.514;9.994;2024-03-23T11:48:10;12.60;91.70
981;DHT22;479;53.514;9.994;2024-03-23T11:50:38;12.40;91.80
981;DHT22;479;53.514;9.994;2024-03-23T11:53:08;11.70;91.70
981;DHT22;479;53.514;9.994;2024-03-23T11:55:42;11.60;95.70
981;DHT22;479;53.514;9.994;2024-03-23T11:58:11;12.10;97.90
981;DHT22;479;53.514;9.994;2024-03-23T12:00:37;12.40;96.00
981;DHT22;479;53.514;9.994;2024-03-23T12:03:06;12.50;93.60
981;DHT22;479;53.514;9.994;2024-03-23T12:05:32;12.50;93.20
981;DHT22;479;53.514;9.994;2024-03-23T12:08:22;12.60;93.10
981;DHT22;479;53.514;9.994;2024-03-23T12:10:50;12.30;93.80
981;DHT22;479;53.514;9.994;2024-03-23T12:13:19;11.60;96.20
981;DHT22;479;53.514;9.994;2024-03-23T12:15:46;10.90;99.90
981;DHT22;479;53.514;9.994;2024-03-23T12:18:15;10.20;99.90
981;DHT22;479;53.514;9.994;2024-03-23T12:20:41;10.10;99.90
981;DHT22;479;53.514;9.994;2024-03-23T12:23:11;10.10;99.90
981;DHT22;479;53.514;9.994;2024-03-23T12:25:40;9.70;99.90
981;DHT22;479;53.514;9.994;2024-03-23T12:28:08;10.20;99.90
981;DHT22;479;53.514;9.994;2024-03-23T12:30:35;10.20;99.90
981;DHT22;479;53.514;9.994;2024-03-23T12:33:02;9.90;99.90
981;DHT22;479;53.514;9.994;2024-03-23T12:35:30;10.00;99.90
981;DHT22;479;53.514;9.994;2024-03-23T12:37:57;9.70;99.90
981;DHT22;479;53.514;9.994;2024-03-23T12:40:23;9.60;99.90
981;DHT22;479;53.514;9.994;2024-03-23T12:42:50;9.40;99.90
981;DHT22;479;53.514;9.994;2024-03-23T12:45:16;9.00;99.90
981;DHT22;479;53.514;9.994;2024-03-23T12:47:43;8.70;99.90
981;DHT22;479;53.514;9.994;2024-03-23T12:50:09;8.70;99.90
981;DHT22;479;53.514;9.994;2024-03-23T12:52:38;8.50;99.90
981;DHT22;479;53.514;9.994;2024-03-23T12:55:04;8.60;99.90
981;DHT22;479;53.514;9.994;2024-03-23T12:57:32;8.70;99.90
981;DHT22;479;53.514;9.994;2024-03-23T12:59:58;8.50;99.90
981;DHT22;479;53.514;9.994;2024-03-23T13:02:26;8.30;99.90
981;DHT22;479;53.514;9.994;2024-03-23T13:04:52;8.00;99.90
981;DHT22;479;53.514;9.994;2024-03-23T13:07:21;8.00;99.90
981;DHT22;479;53.514;9.994;2024-03-23T13:09:50;7.70;99.90
981;DHT22;479;53.514;9.994;2024-03-23T13:12:17;7.80;99.90
981;DHT22;479;53.514;9.994;2024-03-23T13:14:44;8.30;99.90
981;DHT22;479;53.514;9.994;2024-03-23T13:17:11;8.50;99.90
981;DHT22;479;53.514;9.994;2024-03-23T13:19:37;8.70;99.90
981;DHT22;479;53.514;9.994;2024-03-23T13:22:04;8.80;99.90
981;DHT22;479;53.514;9.994;2024-03-23T13:24:30;8.90;99.90
981;DHT22;479;53.514;9.994;2024-03-23T13:26:58;9.10;99.90
981;DHT22;479;53.514;9.994;2024-03-23T13:29:25;9.00;99.90
981;DHT22;479;53.514;9.994;2024-03-23T13:31:52;8.90;99.90
981;DHT22;479;53.514;9.994;2024-03-23T13:34:18;8.70;99.90
981;DHT22;479;53.514;9.994;2024-03-23T13:36:46;8.60;99.90
981;DHT22;479;53.514;9.994;2024-03-23T13:39:20;8.50;99.90
981;DHT22;479;53.514;9.994;2024-03-23T13:41:48;8.80;99.90
981;DHT22;479;53.514;9.994;2024-03-23T13:44:16;9.20;99.90
981;DHT22;479;53.514;9.994;2024-03-23T13:46:45;9.10;99.90
981;DHT22;479;53.514;9.994;2024-03-23T13:49:24;9.10;99.90
981;DHT22;479;53.514;9.994;2024-03-23T13:51:52;9.30;99.90
981;DHT22;479;53.514;9.994;2024-03-23T13:54:18;9.20;99.90
981;DHT22;479;53.514;9.994;2024-03-23T13:56:48;9.00;99.90
981;DHT22;479;53.514;9.994;2024-03-23T13:59:15;9.00;99.90
981;DHT22;479;53.514;9.994;2024-03-23T14:01:45;9.00;99.90
981;DHT22;479;53.514;9.994;2024-03-23T14:04:13;9.10;99.90
981;DHT22;479;53.514;9.994;2024-03-23T14:06:42;9.20;99.90
981;DHT22;479;53.514;9.994;2024-03-23T14:09:08;9.50;99.90
981;DHT22;479;53.514;9.994;2024-03-23T14:11:35;9.60;99.90
981;DHT22;479;53.514;9.994;2024-03-23T14:14:03;9.40;99.90
981;DHT22;479;53.514;9.994;2024-03-23T14:16:37;9.50;99.90
981;DHT22;479;53.514;9.994;2024-03-23T14:19:04;9.60;99.90
981;DHT22;479;53.514;9.994;2024-03-23T14:21:32;9.40;99.90
981;DHT22;479;53.514;9.994;2024-03-23T14:24:00;9.50;99.90
981;DHT22;479;53.514;9.994;2024-03-23T14:26:27;9.40;99.90
981;DHT22;479;53.514;9.994;2024-03-23T14:28:53;9.50;99.90
981;DHT22;479;53.514;9.994;2024-03-23T14:31:24;9.70;99.90
981;DHT22;479;53.514;9.994;2024-03-23T14:33:56;9.90;99.90
981;DHT22;479;53.514;9.994;2024-03-23T14:36:28;9.80;99.90
981;DHT22;479;53.514;9.994;2024-03-23T14:38:55;9.80;99.90
981;DHT22;479;53.514;9.994;2024-03-23T14:41:22;9.80;99.90
981;DHT22;479;53.514;9.994;2024-03-23T14:43:49;9.70;99.90
981;DHT22;479;53.514;9.994;2024-03-23T14:46:19;9.80;99.90
981;DHT22;479;53.514;9.994;2024-03-23T14:48:46;9.80;99.90
981;DHT22;479;53.514;9.994;2024-03-23T14:51:15;9.40;99.90
981;DHT22;479;53.514;9.994;2024-03-23T14:53:49;9.60;99.90
981;DHT22;479;53.514;9.994;2024-03-23T14:56:17;9.90;99.90
981;DHT22;479;53.514;9.994;2024-03-23T14:58:43;10.20;99.90
981;DHT22;479;53.514;9.994;2024-03-23T15:01:11;10.30;99.90
981;DHT22;479;53.514;9.994;2024-03-23T15:03:37;9.70;99.90
981;DHT22;479;53.514;9.994;2024-03-23T15:06:05;9.70;99.90
981;DHT22;479;53.514;9.994;2024-03-23T15:08:33;9.10;99.90
981;DHT22;479;53.514;9.994;2024-03-23T15:11:00;8.60;99.90
981;DHT22;479;53.514;9.994;2024-03-23T15:13:30;8.50;99.90
981;DHT22;479;53.514;9.994;2024-03-23T15:16:00;8.40;99.90
981;DHT22;479;53.514;9.994;2024-03-23T15:18:30;8.30;99.90
981;DHT22;479;53.514;9.994;2024-03-23T15:20:59;8.30;99.90
981;DHT22;479;53.514;9.994;2024-03-23T15:23:28;8.20;99.90
981;DHT22;479;53.514;9.994;2024-03-23T15:26:01;7.70;99.90
981;DHT22;479;53.514;9.994;2024-03-23T15:28:29;8.20;99.90
981;DHT22;479;53.514;9.994;2024-03-23T15:31:07;8.40;99.90
981;DHT22;479;53.514;9.994;2024-03-23T15:33:35;8.60;99.90
981;DHT22;479;53.514;9.994;2024-03-23T15:36:07;8.60;99.90
981;DHT22;479;53.514;9.994;2024-03-23T15:38:35;8.60;99.90
981;DHT22;479;53.514;9.994;2024-03-23T15:41:05;8.60;99.90
981;DHT22;479;53.514;9.994;2024-03-23T15:43:32;8.60;99.90
981;DHT22;479;53.514;9.994;2024-03-23T15:45:59;8.60;99.90
981;DHT22;479;53.514;9.994;2024-03-23T15:48:26;8.50;99.90
981;DHT22;479;53.514;9.994;2024-03-23T15:50:55;8.50;99.90
981;DHT22;479;53.514;9.994;2024-03-23T15:53:23;8.50;99.90
981;DHT22;479;53.514;9.994;2024-03-23T15:55:53;8.60;99.90
981;DHT22;479;53.514;9.994;2024-03-23T15:58:21;8.50;99.90
981;DHT22;479;53.514;9.994;2024-03-23T16:00:54;8.40;99.90
981;DHT22;479;53.514;9.994;2024-03-23T16:03:20;8.30;99.90
981;DHT22;479;53.514;9.994;2024-03-23T16:05:50;8.30;99.90
981;DHT22;479;53.514;9.994;2024-03-23T16:08:16;8.40;99.90
981;DHT22;479;53.514;9.994;2024-03-23T16:10:43;8.50;99.90
981;DHT22;479;53.514;9.994;2024-03-23T16:13:09;8.60;99.90
981;DHT22;479;53.514;9.994;2024-03-23T16:15:37;8.80;99.90
981;DHT22;479;53.514;9.994;2024-03-23T16:18:04;8.80;99.90
981;DHT22;479;53.514;9.994;2024-03-23T16:20:31;8.70;99.90
981;DHT22;479;53.514;9.994;2024-03-23T16:22:59;8.60;99.90
981;DHT22;479;53.514;9.994;2024-03-23T16:25:26;8.50;99.90
981;DHT22;479;53.514;9.994;2024-03-23T16:27:52;8.40;99.90
981;DHT22;479;53.514;9.994;2024-03-23T16:30:19;8.20;99.90
981;DHT22;479;53.514;9.994;2024-03-23T16:32:47;8.10;99.90
981;DHT22;479;53.514;9.994;2024-03-23T16:35:14;8.00;99.90
981;DHT22;479;53.514;9.994;2024-03-23T16:37:41;8.10;99.90
981;DHT22;479;53.514;9.994;2024-03-23T16:40:10;8.20;99.90
981;DHT22;479;53.514;9.994;2024-03-23T16:42:37;8.40;99.90
981;DHT22;479;53.514;9.994;2024-03-23T16:45:11;8.40;99.90
981;DHT22;479;53.514;9.994;2024-03-23T16:47:41;8.40;99.90
981;DHT22;479;53.514;9.994;2024-03-23T16:50:11;8.50;99.90
981;DHT22;479;53.514;9.994;2024-03-23T16:52:38;8.60;99.90
981;DHT22;479;53.514;9.994;2024-03-23T16:55:08;8.50;99.90
981;DHT22;479;53.514;9.994;2024-03-23T16:57:36;8.40;99.90
981;DHT22;479;53.514;9.994;2024-03-23T17:00:03;8.30;99.90
981;DHT22;479;53.514;9.994;2024-03-23T17:02:32;8.30;99.90
981;DHT22;479;53.514;9.994;2024-03-23T17:05:06;8.20;99.90
981;DHT22;479;53.514;9.994;2024-03-23T17:07:36;8.10;99.90
981;DHT22;479;53.514;9.994;2024-03-23T17:10:05;8.10;99.90
981;DHT22;479;53.514;9.994;2024-03-23T17:12:31;8.00;99.90
981;DHT22;479;53.514;9.994;2024-03-23T17:14:58;8.00;99.90
981;DHT22;479;53.514;9.994;2024-03-23T17:17:24;7.80;99.90
981;DHT22;479;53.514;9.994;2024-03-23T17:19:59;7.70;99.90
981;DHT22;479;53.514;9.994;2024-03-23T17:22:28;7.60;99.90
981;DHT22;479;53.514;9.994;2024-03-23T17:24:58;7.60;99.90
981;DHT22;479;53.514;9.994;2024-03-23T17:27:26;7.60;99.90
981;DHT22;479;53.514;9.994;2024-03-23T17:29:55;7.60;99.90
981;DHT22;479;53.514;9.994;2024-03-23T17:32:23;7.50;99.90
981;DHT22;479;53.514;9.994;2024-03-23T17:34:50;7.50;99.90
981;DHT22;479;53.514;9.994;2024-03-23T17:37:16;7.40;99.90
981;DHT22;479;53.514;9.994;2024-03-23T17:39:44;7.30;99.90
981;DHT22;479;53.514;9.994;2024-03-23T17:42:12;7.20;99.90